SBOSBO OTP / LROP
Speedbird OnlineSpeedbird Online OTP / LROP

Henri Coandă International Airport
22:12 10.4°C

Location Bucharest, Romania
Latitude: 44.5711111
Longitude: 26.085
Local Time 22:12 on 20 Apr 2024
UTC +3 hours (Europe/Bucharest)
Currency £1 equals RON 5.78
METAR LROP 201900Z 30005KT CAVOK 10/06 Q1010 NOSIG
TAF TAF LROP 201700Z 2018/2118 VRB04KT CAVOK TEMPO 2101/2104 3000 BR BECMG 2112/2114 13010KT PROB30 TEMPO 2114/2118 5000 -SHRA BKN010 SCT030CB
Weather As Of 20 Apr 2024 22:12
Description Clear sky
Wind 10 km/h from North-West (300°)
Cloud Cover 0%
Precipitation Rain: none, Snow: none
Sunrise 06:22
Sunset 20:06
NOTAM 32 active NOTAM
Rotations During the last 90 days there were
156 flights from LHR
1 flights from OTP
158 flights to LHR
1 flights to OTP
Lounges MasterCard Business Lounge, Main Terminal
Web Airport Website | Wikipedia
Codes IATA: OTP
ICAO: LROP
Altitude 96 Meter / 314 Feet
Distance 2,065 KM / 1,283 Miles
from London.
Runways
RunwayLength (m)Surface
08L3500Asphalt
08R3500Asphalt
26L3500Asphalt
26R3500Asphalt
Radio
TypeDescriptionFrequency
APPBUCURESTI APP118.25
ATISOTOPENI ATIS118.5
GNDOTOPENI GND121.7
TWROTOPENI TWR120.9
Live ATC



Support Speedbird Online

© 2017-2024 Speedbird Online